createdAt,value
2023-04-09T00:04:33.517Z,29.75
2023-04-09T00:09:38.522Z,25.92
2023-04-09T00:14:41.739Z,22.48
2023-04-09T00:19:45.023Z,29.58
2023-04-09T00:24:49.824Z,26.40
2023-04-09T00:29:53.898Z,31.52
2023-04-09T00:34:57.566Z,28.43
2023-04-09T00:40:02.526Z,27.40
2023-04-09T00:45:07.144Z,29.70
2023-04-09T00:55:16.771Z,23.90
2023-04-09T01:00:20.682Z,31.02
2023-04-09T01:05:28.339Z,27.42
2023-04-09T01:10:40.768Z,28.67
2023-04-09T01:15:48.758Z,28.42
2023-04-09T01:20:57.899Z,25.42
2023-04-09T01:26:07.518Z,25.70
2023-04-09T01:31:30.796Z,30.77
2023-04-09T01:36:35.821Z,23.25
2023-04-09T01:46:47.371Z,27.93
2023-04-09T01:51:50.932Z,34.28
2023-04-09T01:56:54.218Z,26.92
2023-04-09T02:02:03.814Z,32.55
2023-04-09T02:07:12.932Z,29.92
2023-04-09T02:12:19.155Z,36.47
2023-04-09T02:17:23.958Z,30.13
2023-04-09T02:22:27.549Z,34.15
2023-04-09T02:27:31.201Z,35.75
2023-04-09T02:32:36.251Z,40.83
2023-04-09T02:37:39.528Z,46.90
2023-04-09T02:42:42.907Z,36.28
2023-04-09T02:47:47.703Z,34.42
2023-04-09T02:52:51.326Z,26.38
2023-04-09T02:57:54.728Z,28.08
2023-04-09T03:02:59.509Z,24.05
2023-04-09T03:08:02.973Z,31.08
2023-04-09T03:13:06.297Z,24.80
2023-04-09T03:18:11.202Z,27.77
2023-04-09T03:23:14.638Z,23.55
2023-04-09T03:28:23.993Z,31.35
2023-04-09T03:33:31.519Z,32.38
2023-04-09T03:38:36.275Z,37.25
2023-04-09T03:43:45.669Z,28.52
2023-04-09T03:48:53.166Z,28.98
2023-04-09T03:53:57.440Z,31.85
2023-04-09T03:59:01.558Z,28.00
2023-04-09T04:04:14.854Z,28.80
2023-04-09T04:09:26.508Z,29.33
2023-04-09T04:14:37.427Z,33.60
2023-04-09T04:19:52.893Z,38.50
2023-04-09T04:24:56.895Z,34.63
2023-04-09T04:30:02.327Z,35.88
2023-04-09T04:35:32.753Z,34.25
2023-04-09T04:40:39.484Z,33.47
2023-04-09T04:45:44.043Z,36.03
2023-04-09T04:50:57.043Z,36.85
2023-04-09T04:56:02.043Z,37.15
2023-04-09T05:01:05.769Z,42.60
2023-04-09T05:06:11.916Z,38.20
2023-04-09T05:11:21.197Z,32.33
2023-04-09T05:16:25.557Z,40.08
2023-04-09T05:21:39.063Z,40.05
2023-04-09T05:26:43.093Z,39.65
2023-04-09T05:31:47.007Z,48.83
2023-04-09T05:37:02.419Z,37.85
2023-04-09T05:42:06.760Z,49.67
2023-04-09T05:47:15.145Z,38.53
2023-04-09T05:52:27.730Z,41.70
2023-04-09T05:57:32.074Z,40.60
2023-04-09T06:02:39.202Z,43.10
2023-04-09T06:07:44.186Z,36.85
2023-04-09T06:12:47.757Z,38.75
2023-04-09T06:17:51.464Z,38.67
2023-04-09T06:22:56.318Z,46.50
2023-04-09T06:27:59.793Z,49.53
2023-04-09T06:33:03.774Z,45.20
2023-04-09T06:38:10.147Z,44.00
2023-04-09T06:43:13.675Z,46.90
2023-04-09T06:48:27.992Z,43.87
2023-04-09T06:53:32.692Z,41.05
2023-04-09T06:58:36.750Z,44.40
2023-04-09T07:03:40.703Z,50.00
2023-04-09T07:08:45.631Z,42.13
2023-04-09T07:13:49.598Z,38.47
2023-04-09T07:18:52.975Z,38.28
2023-04-09T07:23:57.895Z,38.53
2023-04-09T07:29:02.127Z,41.15
2023-04-09T07:34:05.734Z,46.20
2023-04-09T07:39:10.420Z,39.60
2023-04-09T07:44:14.392Z,35.40
2023-04-09T07:49:17.862Z,33.95
2023-04-09T07:54:23.222Z,35.75
2023-04-09T07:59:27.635Z,31.42
2023-04-09T08:04:31.984Z,29.73
2023-04-09T08:09:37.053Z,29.33
2023-04-09T08:14:41.358Z,38.30
2023-04-09T08:19:45.020Z,43.97
2023-04-09T08:24:53.295Z,34.38
2023-04-09T08:29:57.505Z,33.60
2023-04-09T08:35:01.266Z,32.77
2023-04-09T08:40:08.737Z,38.40
2023-04-09T08:45:13.042Z,32.70
2023-04-09T08:50:16.705Z,35.93
2023-04-09T08:55:22.690Z,37.22
2023-04-09T09:00:26.291Z,29.00
2023-04-09T09:05:37.127Z,37.20
2023-04-09T09:10:43.897Z,33.50
2023-04-09T09:15:49.927Z,35.08
2023-04-09T09:20:58.676Z,37.70
2023-04-09T09:26:12.940Z,30.77
2023-04-09T09:31:18.919Z,37.55
2023-04-09T09:36:33.215Z,32.33
2023-04-09T09:41:38.191Z,33.87
2023-04-09T09:46:42.641Z,32.25
2023-04-09T09:51:46.302Z,29.27
2023-04-09T09:56:53.603Z,33.28
2023-04-09T10:02:01.506Z,30.92
2023-04-09T10:07:07.105Z,33.60
2023-04-09T10:12:12.260Z,26.85
2023-04-09T10:17:16.223Z,31.23
2023-04-09T10:22:23.409Z,29.67
2023-04-09T10:27:28.671Z,26.10
2023-04-09T10:37:50.572Z,39.58
2023-04-09T10:42:57.614Z,35.47
2023-04-09T10:48:03.256Z,34.10
2023-04-09T10:53:06.737Z,32.40
2023-04-09T10:58:13.502Z,31.70
2023-04-09T11:03:25.733Z,32.60
2023-04-09T11:08:31.046Z,31.80
2023-04-09T11:23:51.763Z,27.88
2023-04-09T11:28:58.217Z,28.67
2023-04-09T11:34:01.651Z,27.40
2023-04-09T11:39:05.096Z,29.35
2023-04-09T11:44:10.036Z,32.03
2023-04-09T11:49:13.878Z,26.15
2023-04-09T11:54:17.832Z,29.48
2023-04-09T11:59:22.641Z,25.42
2023-04-09T12:04:26.374Z,23.63
2023-04-09T12:09:29.792Z,24.33
2023-04-09T12:14:35.386Z,23.13
2023-04-09T12:19:38.783Z,26.50
2023-04-09T12:24:42.801Z,23.20
2023-04-09T12:29:47.471Z,26.30
2023-04-09T12:34:51.192Z,26.42
2023-04-09T12:39:54.568Z,23.92
2023-04-09T12:44:59.290Z,21.52
2023-04-09T12:50:03.813Z,23.42
2023-04-09T12:55:08.182Z,23.98
2023-04-09T13:00:14.406Z,75.03
2023-04-09T13:05:18.175Z,20.77
2023-04-09T13:10:21.526Z,22.58
2023-04-09T13:15:27.377Z,22.08
2023-04-09T13:20:30.870Z,25.83
2023-04-09T13:25:34.143Z,24.90
2023-04-09T13:30:39.020Z,22.50
2023-04-09T13:40:46.004Z,22.73
2023-04-09T13:45:50.758Z,23.48
2023-04-09T13:50:54.116Z,21.58
2023-04-09T13:55:57.649Z,20.80
2023-04-09T14:01:03.165Z,20.25
2023-04-09T14:06:08.514Z,19.15
2023-04-09T14:11:15.196Z,22.05
2023-04-09T14:16:20.576Z,24.52
2023-04-09T14:21:24.652Z,21.08
2023-04-09T14:26:29.279Z,20.23
2023-04-09T14:31:33.962Z,24.97
2023-04-09T14:41:41.568Z,18.58
2023-04-09T14:46:46.375Z,19.03
2023-04-09T14:56:53.109Z,19.83
2023-04-09T15:01:57.951Z,19.77
2023-04-09T15:12:04.933Z,16.80
2023-04-09T15:17:09.972Z,19.60
2023-04-09T15:22:13.255Z,21.02
2023-04-09T15:27:17.722Z,18.63
2023-04-09T15:32:22.520Z,20.30
2023-04-09T15:42:29.602Z,19.23
2023-04-09T15:47:34.275Z,18.27
2023-04-09T15:52:38.058Z,21.33
2023-04-09T15:57:41.346Z,21.38
2023-04-09T16:02:46.310Z,18.13
2023-04-09T16:07:51.408Z,17.42
2023-04-09T16:12:55.194Z,24.60
2023-04-09T16:17:59.970Z,14.90
2023-04-09T16:23:03.698Z,18.25
2023-04-09T16:28:07.165Z,17.35
2023-04-09T16:33:12.324Z,18.40
2023-04-09T16:43:18.915Z,15.13
2023-04-09T16:48:24.039Z,13.60
2023-04-09T16:53:27.891Z,15.13
2023-04-09T16:58:32.048Z,16.30
2023-04-09T17:03:36.822Z,15.07
2023-04-09T17:08:40.300Z,16.60
2023-04-09T17:13:44.139Z,14.00
2023-04-09T17:18:49.606Z,19.05
2023-04-09T17:23:53.191Z,19.88
2023-04-09T17:28:57.071Z,16.55
2023-04-09T17:34:01.949Z,19.50
2023-04-09T17:39:06.482Z,14.18
2023-04-09T17:44:10.059Z,19.38
2023-04-09T17:49:14.740Z,22.45
2023-04-09T17:54:18.401Z,22.35
2023-04-09T17:59:21.678Z,22.10
2023-04-09T18:04:27.050Z,24.00
2023-04-09T18:09:31.098Z,18.98
2023-04-09T18:14:34.778Z,24.13
2023-04-09T18:19:39.751Z,21.02
2023-04-09T18:24:44.198Z,21.77
2023-04-09T18:29:49.318Z,26.92
2023-04-09T18:34:54.316Z,17.98
2023-04-09T18:39:58.832Z,19.17
2023-04-09T18:45:03.839Z,25.45
2023-04-09T18:50:10.454Z,18.58
2023-04-09T18:55:14.340Z,20.75
2023-04-09T19:00:18.160Z,18.95
2023-04-09T19:05:22.805Z,18.48
2023-04-09T19:10:27.321Z,18.42
2023-04-09T19:15:31.149Z,20.42
2023-04-09T19:20:37.627Z,16.50
2023-04-09T19:25:41.170Z,23.02
2023-04-09T19:30:44.593Z,23.27
2023-04-09T19:35:50.071Z,20.20
2023-04-09T19:40:53.793Z,22.60
2023-04-09T19:45:57.144Z,29.17
2023-04-09T19:51:02.222Z,23.58
2023-04-09T19:56:06.493Z,21.08
2023-04-09T20:01:09.937Z,27.45
2023-04-09T20:06:15.172Z,24.48
2023-04-09T20:16:22.821Z,23.02
2023-04-09T20:21:27.982Z,27.03
2023-04-09T20:26:31.392Z,26.45
2023-04-09T20:31:35.191Z,23.08
2023-04-09T20:36:43.757Z,29.10
2023-04-09T20:41:47.335Z,28.83
2023-04-09T20:46:51.416Z,23.13
2023-04-09T20:51:56.904Z,25.02
2023-04-09T20:57:01.559Z,25.38
2023-04-09T21:02:05.239Z,30.75
2023-04-09T21:07:09.955Z,23.45
2023-04-09T21:12:13.548Z,27.02
2023-04-09T21:17:18.367Z,25.55
2023-04-09T21:22:24.273Z,28.27
2023-04-09T21:27:27.498Z,26.20
2023-04-09T21:32:31.428Z,33.17
2023-04-09T21:37:38.413Z,25.73
2023-04-09T21:42:41.810Z,26.58
2023-04-09T21:47:45.996Z,27.00
2023-04-09T21:52:51.050Z,25.35
2023-04-09T21:57:55.366Z,31.58
2023-04-09T22:03:01.422Z,30.90
2023-04-09T22:08:07.318Z,29.58
2023-04-09T22:13:10.874Z,28.55
2023-04-09T22:18:14.201Z,27.50
2023-04-09T22:23:18.777Z,29.25
2023-04-09T22:28:22.598Z,30.67
2023-04-09T22:33:26.651Z,29.30
2023-04-09T22:38:31.325Z,44.22
2023-04-09T22:43:35.081Z,28.30
2023-04-09T22:48:44.614Z,31.02
2023-04-09T22:53:49.898Z,26.70
2023-04-09T22:58:53.341Z,32.28
2023-04-09T23:03:56.745Z,27.38
2023-04-09T23:09:01.608Z,29.73
2023-04-09T23:14:05.142Z,30.83
2023-04-09T23:19:08.516Z,38.15
2023-04-09T23:24:13.832Z,36.08
2023-04-09T23:29:17.173Z,32.97
2023-04-09T23:34:20.923Z,35.40
2023-04-09T23:39:25.544Z,30.55
2023-04-09T23:44:28.850Z,35.17
2023-04-09T23:49:32.397Z,35.92
2023-04-09T23:54:37.128Z,36.25
2023-04-09T23:59:40.584Z,36.88
